Huvudsida
METAR-TAF:

METAR-TAF

Flygplatser :

Sigonella flygbas

Sigonella, Italien

latitud: 37-24N, longitud: 014-55E, höjd: 22 m

Aktuellt väderrapport

Denna rapport gjordes för 51 minuter sedan, klockan 21:55 UTC
Vind 6 kt från ost/nordost
Temperatur 15°C
Fuktighet 94%
Tryck 1014 hPa
Sikt 10 km eller mer
Inga moln under 1 500 m eller inga cumulonimbus

METAR: LICZ 152155Z 07006KT CAVOK 15/14 Q1014 RMK SKC VIS MIN 9999 WIND THR28 07007KT WIND THR10 /////KT A2996 BLU

Tid: 23:46 (22:46 UTC)

Väderprognos

Denna rapport gjordes för 5 timmar och 46 minuter sedan, klockan 17:00 UTC
Prognos gäller från 15 kl. 18 UTC till 16 kl. 18 UTC
Vind 7 kt från ost
Sikt 10 km eller mer
Spridda moln på en höjd av 2000 ft
Spridda moln på en höjd av 7000 ft
Temporärt
från 15 kl. 21 UTC till 16 kl. 05 UTC
Sikt: 3000 m
fuktdis
Blir
från 16 kl. 10 UTC till 16 kl. 12 UTC
Vind 15 kt från ost/sydost

TAF: LICZ 151700Z 1518/1618 09007KT 9999 SCT020 SCT070 TEMPO 1521/1605 3000 BR BECMG 1610/1612 12015KT

Aktuella väderrapporter och prognoser från 4000 flygplatser (METAR- och TAF-rapporter).

De tillgängliga stationerna syns som gula och röda prickar på kartan.

För musen över prickarna för att se namnen på stationerna.

Klicka sedan för att få väderrapporter och prognoser.

För att ändra kartan: Klicka på de gröna knapparna med ett svart kors på för att zooma in; den gröna knappen med ett streck på för att zooma ut; eller på de gröna pilarna för angränsande kartor.


METAR-TAF: